Time;durP1;ratioP1;P1;durP2;ratioP2;P2;SDS_P1;SDS_P2;PMS_P1;PMS_P2;Temp;Humidity;BMP_temperature;BMP_pressure;BME280_temperature;BME280_humidity;BME280_pressure;Samples;Min_cycle;Max_cycle;Signal;HPM_P1;HPM_P2
2022/03/10 00:00:45;;;;;;;;;;;;;;;;;;4934761;29;19974;-74
2022/03/10 00:03:10;;;;;;;;;;;;;;;;;;4934758;29;19941;-73
2022/03/10 00:05:35;;;;;;;;;;;;;;;;;;4936175;29;19914;-74
2022/03/10 00:08:01;;;;;;;;;;;;;;;;;;4936272;29;19965;-73
2022/03/10 00:10:26;;;;;;;;;;;;;;;;;;4934593;29;20061;-74
2022/03/10 00:12:52;;;;;;;;;;;;;;;;;;4935947;29;19925;-75
2022/03/10 00:15:22;;;;;;;;;;;;;;;;;;4934814;29;19999;-73
2022/03/10 00:17:47;;;;;;;;;;;;;;;;;;4933832;29;20412;-74
2022/03/10 00:20:13;;;;;;;;;;;;;;;;;;4935774;29;20057;-74
2022/03/10 00:22:44;;;;;;;;;;;;;;;;;;4934037;29;19927;-74
2022/03/10 00:25:10;;;;;;;;;;;;;;;;;;4935954;29;19915;-75
2022/03/10 00:27:35;;;;;;;;;;;;;;;;;;4935600;29;20691;-75
2022/03/10 00:30:00;;;;;;;;;;;;;;;;;;4935629;29;19929;-75
2022/03/10 00:32:26;;;;;;;;;;;;;;;;;;4935398;29;19977;-75
2022/03/10 00:34:51;;;;;;;;;;;;;;;;;;4933869;29;20363;-76
2022/03/10 00:37:16;;;;;;;;;;;;;;;;;;4935291;29;19922;-76
2022/03/10 00:39:42;;;;;;;;;;;;;;;;;;4933610;29;19919;-76
2022/03/10 00:42:07;;;;;;;;;;;;;;;;;;4933319;29;20005;-76
2022/03/10 00:44:33;;;;;;;;;;;;;;;;;;4933767;29;19923;-76
2022/03/10 00:46:59;;;;;;;;;;;;;;;;;;4916818;29;19919;-75
2022/03/10 00:49:24;;;;;;;;;;;;;;;;;;4898675;29;19955;-75
2022/03/10 00:51:50;;;;;;;;;;;;;;;;;;4915706;29;20288;-75
2022/03/10 00:54:16;;;;;;;;;;;;;;;;;;4914424;29;20355;-75
2022/03/10 00:56:41;;;;;;;;;;;;;;;;;;4928724;29;19975;-74
2022/03/10 00:59:07;;;;;;;;;;;;;;;;;;4933032;29;19999;-75
2022/03/10 01:01:32;;;;;;;;;;;;;;;;;;4933102;29;19934;-74
2022/03/10 01:03:57;;;;;;;;;;;;;;;;;;4934198;29;20442;-75
2022/03/10 01:06:23;;;;;;;;;;;;;;;;;;4933408;29;19958;-75
2022/03/10 01:08:48;;;;;;;;;;;;;;;;;;4932116;29;20202;-74
2022/03/10 01:11:13;;;;;;;;;;;;;;;;;;4924613;29;19915;-75
2022/03/10 01:13:39;;;;;;;;;;;;;;;;;;4913816;29;19915;-76
2022/03/10 01:16:04;;;;;;;;;;;;;;;;;;4914016;29;20295;-75
2022/03/10 01:18:30;;;;;;;;;;;;;;;;;;4915514;29;19922;-75
2022/03/10 01:20:55;;;;;;;;;;;;;;;;;;4915359;29;19926;-75
2022/03/10 01:23:20;;;;;;;;;;;;;;;;;;4916083;29;19922;-75
2022/03/10 01:25:46;;;;;;;;;;;;;;;;;;4914948;29;19926;-75
2022/03/10 01:28:11;;;;;;;;;;;;;;;;;;4914053;29;20341;-75
2022/03/10 01:30:36;;;;;;;;;;;;;;;;;;4913828;29;19998;-75
2022/03/10 01:33:02;;;;;;;;;;;;;;;;;;4914916;29;19920;-75
2022/03/10 01:35:27;;;;;;;;;;;;;;;;;;4915332;29;19923;-76
2022/03/10 01:37:53;;;;;;;;;;;;;;;;;;4915115;29;19922;-75
2022/03/10 01:40:19;;;;;;;;;;;;;;;;;;4915091;29;19930;-75
2022/03/10 01:42:44;;;;;;;;;;;;;;;;;;4912892;29;19915;-75
2022/03/10 01:45:10;;;;;;;;;;;;;;;;;;4914915;29;19926;-75
2022/03/10 01:47:36;;;;;;;;;;;;;;;;;;4913863;29;19967;-75
2022/03/10 01:50:02;;;;;;;;;;;;;;;;;;4913287;29;19919;-75
2022/03/10 01:52:27;;;;;;;;;;;;;;;;;;4913337;29;19915;-75
2022/03/10 01:54:53;;;;;;;;;;;;;;;;;;4914703;29;19990;-75
2022/03/10 01:57:18;;;;;;;;;;;;;;;;;;4927452;29;19958;-74
2022/03/10 01:59:44;;;;;;;;;;;;;;;;;;4933635;29;20359;-75
2022/03/10 02:02:09;;;;;;;;;;;;;;;;;;4932565;29;19981;-76
2022/03/10 02:04:35;;;;;;;;;;;;;;;;;;4934073;29;20410;-75
2022/03/10 02:07:05;;;;;;;;;;;;;;;;;;4916444;29;19923;-75
2022/03/10 02:12:15;;;;;;;;;;;;;;;;;;4933262;29;20338;-75
2022/03/10 02:17:25;;;;;;;;;;;;;;;;;;4933619;29;19926;-74
2022/03/10 02:19:51;;;;;;;;;;;;;;;;;;4931496;29;19919;-75
2022/03/10 02:22:17;;;;;;;;;;;;;;;;;;4933119;29;19915;-75
2022/03/10 02:24:43;;;;;;;;;;;;;;;;;;4932978;29;19918;-75
2022/03/10 02:27:25;;;;;;;;;;;;;;;;;;4931731;29;19915;-76
2022/03/10 02:29:54;;;;;;;;;;;;;;;;;;4931661;29;19927;-74
2022/03/10 02:32:19;;;;;;;;;;;;;;;;;;4931867;29;19946;-75
2022/03/10 02:34:45;;;;;;;;;;;;;;;;;;4931560;29;19954;-75
2022/03/10 02:37:11;;;;;;;;;;;;;;;;;;4933200;29;19919;-75
2022/03/10 02:39:37;;;;;;;;;;;;;;;;;;4931838;29;19998;-75
2022/03/10 02:42:03;;;;;;;;;;;;;;;;;;4925274;29;19954;-75
2022/03/10 02:44:29;;;;;;;;;;;;;;;;;;4913687;29;19915;-75
2022/03/10 02:46:54;;;;;;;;;;;;;;;;;;4929683;29;19966;-74
2022/03/10 02:49:20;;;;;;;;;;;;;;;;;;4932528;29;19915;-75
2022/03/10 02:51:45;;;;;;;;;;;;;;;;;;4932372;29;19966;-75
2022/03/10 02:54:11;;;;;;;;;;;;;;;;;;4931455;29;20231;-75
2022/03/10 02:56:37;;;;;;;;;;;;;;;;;;4928699;29;19914;-74
2022/03/10 02:59:02;;;;;;;;;;;;;;;;;;4912101;29;19919;-75
2022/03/10 03:01:28;;;;;;;;;;;;;;;;;;4912658;29;19925;-74
2022/03/10 03:03:54;;;;;;;;;;;;;;;;;;4911983;29;19971;-74
2022/03/10 03:06:19;;;;;;;;;;;;;;;;;;4912655;29;20027;-74
2022/03/10 03:08:45;;;;;;;;;;;;;;;;;;4912386;29;19930;-77
2022/03/10 03:11:10;;;;;;;;;;;;;;;;;;4912729;29;19915;-75
2022/03/10 03:13:36;;;;;;;;;;;;;;;;;;4930542;29;20339;-75
2022/03/10 03:16:01;;;;;;;;;;;;;;;;;;4932407;29;19919;-75
2022/03/10 03:18:27;;;;;;;;;;;;;;;;;;4930980;29;19919;-75
2022/03/10 03:20:52;;;;;;;;;;;;;;;;;;4932273;29;19923;-74
2022/03/10 03:23:17;;;;;;;;;;;;;;;;;;4930813;29;19994;-75
2022/03/10 03:25:43;;;;;;;;;;;;;;;;;;4930767;29;19915;-74
2022/03/10 03:28:08;;;;;;;;;;;;;;;;;;4930282;29;20295;-75
2022/03/10 03:30:34;;;;;;;;;;;;;;;;;;4930376;29;19946;-74
2022/03/10 03:32:59;;;;;;;;;;;;;;;;;;4930713;29;19914;-74
2022/03/10 03:35:25;;;;;;;;;;;;;;;;;;4932341;29;19921;-76
2022/03/10 03:37:50;;;;;;;;;;;;;;;;;;4930525;29;20212;-74
2022/03/10 03:40:16;;;;;;;;;;;;;;;;;;4932011;29;19923;-75
2022/03/10 03:42:41;;;;;;;;;;;;;;;;;;4930084;29;19918;-75
2022/03/10 03:45:07;;;;;;;;;;;;;;;;;;4927350;29;20049;-75
2022/03/10 03:47:32;;;;;;;;;;;;;;;;;;4911612;29;20028;-75
2022/03/10 03:49:57;;;;;;;;;;;;;;;;;;4911571;29;20024;-75
2022/03/10 03:52:23;;;;;;;;;;;;;;;;;;4911422;29;19923;-75
2022/03/10 03:54:48;;;;;;;;;;;;;;;;;;4912713;29;19915;-75
2022/03/10 03:57:13;;;;;;;;;;;;;;;;;;4911042;29;19950;-75
2022/03/10 03:59:39;;;;;;;;;;;;;;;;;;4913010;29;19923;-75
2022/03/10 04:02:04;;;;;;;;;;;;;;;;;;4912824;29;20006;-75
2022/03/10 04:04:30;;;;;;;;;;;;;;;;;;4911589;29;19915;-75
2022/03/10 04:06:55;;;;;;;;;;;;;;;;;;4911366;29;19919;-75
2022/03/10 04:09:21;;;;;;;;;;;;;;;;;;4911300;29;19915;-75
2022/03/10 04:11:46;;;;;;;;;;;;;;;;;;4912394;29;19915;-75
2022/03/10 04:14:12;;;;;;;;;;;;;;;;;;4927130;29;19948;-75
2022/03/10 04:16:38;;;;;;;;;;;;;;;;;;4931647;29;20010;-76
2022/03/10 04:19:05;;;;;;;;;;;;;;;;;;4930276;29;19919;-75
2022/03/10 04:21:31;;;;;;;;;;;;;;;;;;4931492;29;19929;-75
2022/03/10 04:23:56;;;;;;;;;;;;;;;;;;4929994;29;19915;-75
2022/03/10 04:26:21;;;;;;;;;;;;;;;;;;4930070;29;20026;-75
2022/03/10 04:28:47;;;;;;;;;;;;;;;;;;4917915;29;19924;-74
2022/03/10 04:31:13;;;;;;;;;;;;;;;;;;4910720;29;19958;-75
2022/03/10 04:33:39;;;;;;;;;;;;;;;;;;4911491;29;19922;-75
2022/03/10 04:36:04;;;;;;;;;;;;;;;;;;4912677;29;19919;-75
2022/03/10 04:38:30;;;;;;;;;;;;;;;;;;4911278;29;19961;-75
2022/03/10 04:40:55;;;;;;;;;;;;;;;;;;4910924;29;20295;-75
2022/03/10 04:43:20;;;;;;;;;;;;;;;;;;4919953;29;19915;-74
2022/03/10 04:45:46;;;;;;;;;;;;;;;;;;4925523;29;20275;-75
2022/03/10 04:48:11;;;;;;;;;;;;;;;;;;4916252;29;19915;-74
2022/03/10 04:50:37;;;;;;;;;;;;;;;;;;4915889;29;19927;-75
2022/03/10 04:53:03;;;;;;;;;;;;;;;;;;4915807;29;19945;-75
2022/03/10 04:55:28;;;;;;;;;;;;;;;;;;4916090;29;19998;-75
2022/03/10 04:57:54;;;;;;;;;;;;;;;;;;4915863;29;20021;-75
2022/03/10 05:00:19;;;;;;;;;;;;;;;;;;4933449;29;19980;-75
2022/03/10 05:02:45;;;;;;;;;;;;;;;;;;4933836;29;20008;-75
2022/03/10 05:05:13;;;;;;;;;;;;;;;;;;4936099;29;20278;-76
2022/03/10 05:07:38;;;;;;;;;;;;;;;;;;4935382;29;19915;-76
2022/03/10 05:10:04;;;;;;;;;;;;;;;;;;4919286;29;19918;-74
2022/03/10 05:12:29;;;;;;;;;;;;;;;;;;4935542;29;19941;-75
2022/03/10 05:14:55;;;;;;;;;;;;;;;;;;4933926;29;19919;-74
2022/03/10 05:17:23;;;;;;;;;;;;;;;;;;4933526;29;19946;-76
2022/03/10 05:19:48;;;;;;;;;;;;;;;;;;4933337;29;19933;-75
2022/03/10 05:22:14;;;;;;;;;;;;;;;;;;4935403;29;20002;-75
2022/03/10 05:24:39;;;;;;;;;;;;;;;;;;4932971;29;19981;-75
2022/03/10 05:27:05;;;;;;;;;;;;;;;;;;4932719;29;19926;-76
2022/03/10 05:29:30;;;;;;;;;;;;;;;;;;4933997;29;19995;-76
2022/03/10 05:31:55;;;;;;;;;;;;;;;;;;4934011;29;19919;-75
2022/03/10 05:34:21;;;;;;;;;;;;;;;;;;4932615;29;19914;-75
2022/03/10 05:36:46;;;;;;;;;;;;;;;;;;4933227;29;20311;-74
2022/03/10 05:39:12;;;;;;;;;;;;;;;;;;4932498;29;19919;-75
2022/03/10 05:41:37;;;;;;;;;;;;;;;;;;4933689;29;19930;-75
2022/03/10 05:44:03;;;;;;;;;;;;;;;;;;4932012;29;19982;-75
2022/03/10 05:46:28;;;;;;;;;;;;;;;;;;4918455;29;19965;-76
2022/03/10 05:48:54;;;;;;;;;;;;;;;;;;4914712;29;19919;-74
2022/03/10 05:51:19;;;;;;;;;;;;;;;;;;4913336;29;19915;-75
2022/03/10 05:53:44;;;;;;;;;;;;;;;;;;4914165;29;19923;-75
2022/03/10 05:56:10;;;;;;;;;;;;;;;;;;4914828;29;19922;-76
2022/03/10 05:58:35;;;;;;;;;;;;;;;;;;4915629;29;19919;-75
2022/03/10 06:01:01;;;;;;;;;;;;;;;;;;4932524;29;19919;-75
2022/03/10 06:03:26;;;;;;;;;;;;;;;;;;4934449;29;19919;-76
2022/03/10 06:05:51;;;;;;;;;;;;;;;;;;4932539;29;20375;-76
2022/03/10 06:08:17;;;;;;;;;;;;;;;;;;4931928;29;19946;-76
2022/03/10 06:10:42;;;;;;;;;;;;;;;;;;4933433;29;19930;-76
2022/03/10 06:13:08;;;;;;;;;;;;;;;;;;4933095;29;20355;-75
2022/03/10 06:15:33;;;;;;;;;;;;;;;;;;4915217;29;19967;-75
2022/03/10 06:17:59;;;;;;;;;;;;;;;;;;4911471;29;19926;-76
2022/03/10 06:20:25;;;;;;;;;;;;;;;;;;4925553;28;19930;-75
2022/03/10 06:22:50;;;;;;;;;;;;;;;;;;4931575;29;19915;-76
2022/03/10 06:25:16;;;;;;;;;;;;;;;;;;4913623;29;19974;-75
2022/03/10 06:27:41;;;;;;;;;;;;;;;;;;4914243;29;19926;-75
2022/03/10 06:30:07;;;;;;;;;;;;;;;;;;4921059;29;20017;-76
2022/03/10 06:32:32;;;;;;;;;;;;;;;;;;4948813;29;19919;-75
2022/03/10 06:34:59;;;;;;;;;;;;;;;;;;4931766;29;19974;-76
2022/03/10 06:37:25;;;;;;;;;;;;;;;;;;4925541;29;19923;-75
2022/03/10 06:39:50;;;;;;;;;;;;;;;;;;4913039;29;19919;-74
2022/03/10 06:42:16;;;;;;;;;;;;;;;;;;4923270;29;19922;-76
2022/03/10 06:44:41;;;;;;;;;;;;;;;;;;4923248;29;19915;-75
2022/03/10 06:47:09;;;;;;;;;;;;;;;;;;4927137;29;19978;-75
2022/03/10 06:49:34;;;;;;;;;;;;;;;;;;4917581;29;19922;-75
2022/03/10 06:52:00;;;;;;;;;;;;;;;;;;4939638;29;19919;-75
2022/03/10 06:54:25;;;;;;;;;;;;;;;;;;4918520;29;19919;-75
2022/03/10 06:56:50;;;;;;;;;;;;;;;;;;4927480;29;19919;-76
2022/03/10 06:59:16;;;;;;;;;;;;;;;;;;4915318;29;20375;-76
2022/03/10 07:01:41;;;;;;;;;;;;;;;;;;4931198;29;19922;-75
2022/03/10 07:04:07;;;;;;;;;;;;;;;;;;4923179;29;19918;-76
2022/03/10 07:06:32;;;;;;;;;;;;;;;;;;4926210;29;19954;-76
2022/03/10 07:08:59;;;;;;;;;;;;;;;;;;4929362;29;19919;-75
2022/03/10 07:11:25;;;;;;;;;;;;;;;;;;4911550;29;20125;-75
2022/03/10 07:13:53;;;;;;;;;;;;;;;;;;4911086;29;19919;-76
2022/03/10 07:16:19;;;;;;;;;;;;;;;;;;4915781;29;20184;-76
2022/03/10 07:18:51;;;;;;;;;;;;;;;;;;4911850;29;19915;-76
2022/03/10 07:21:20;;;;;;;;;;;;;;;;;;4929998;29;19970;-75
2022/03/10 07:23:47;;;;;;;;;;;;;;;;;;4921431;29;19922;-75
2022/03/10 07:26:13;;;;;;;;;;;;;;;;;;4919702;29;19923;-75
2022/03/10 07:28:42;;;;;;;;;;;;;;;;;;4914334;29;19967;-76
2022/03/10 07:31:08;;;;;;;;;;;;;;;;;;4914172;29;19914;-78
2022/03/10 07:33:35;;;;;;;;;;;;;;;;;;4921934;29;19922;-78
2022/03/10 07:36:02;;;;;;;;;;;;;;;;;;4938603;29;19915;-76
2022/03/10 07:38:30;;;;;;;;;;;;;;;;;;4928342;29;20357;-79
2022/03/10 07:40:57;;;;;;;;;;;;;;;;;;4931622;29;20405;-76
2022/03/10 07:43:26;;;;;;;;;;;;;;;;;;4931303;29;20328;-78
2022/03/10 07:45:52;;;;;;;;;;;;;;;;;;4929475;29;20062;-76
2022/03/10 07:48:21;;;;;;;;;;;;;;;;;;4939473;29;19918;-76
2022/03/10 07:50:47;;;;;;;;;;;;;;;;;;4959222;28;19925;-76
2022/03/10 07:53:13;;;;;;;;;;;;;;;;;;4931172;29;19919;-75
2022/03/10 07:55:46;;;;;;;;;;;;;;;;;;4922914;29;19922;-75
2022/03/10 07:58:12;;;;;;;;;;;;;;;;;;4921377;29;19942;-74
2022/03/10 08:00:38;;;;;;;;;;;;;;;;;;4921862;29;19965;-74
2022/03/10 08:03:06;;;;;;;;;;;;;;;;;;4919766;29;20021;-75
2022/03/10 08:05:34;;;;;;;;;;;;;;;;;;4917729;29;19950;-76
2022/03/10 08:08:02;;;;;;;;;;;;;;;;;;4924951;29;20014;-76
2022/03/10 08:10:30;;;;;;;;;;;;;;;;;;4929508;29;19970;-76
2022/03/10 08:12:56;;;;;;;;;;;;;;;;;;4924803;29;19923;-77
2022/03/10 08:15:26;;;;;;;;;;;;;;;;;;4917031;29;19977;-75
2022/03/10 08:17:52;;;;;;;;;;;;;;;;;;4925179;29;20502;-77
2022/03/10 08:20:17;;;;;;;;;;;;;;;;;;4925349;29;20041;-76
2022/03/10 08:22:43;;;;;;;;;;;;;;;;;;4928127;29;19923;-77
2022/03/10 08:25:09;;;;;;;;;;;;;;;;;;4919234;29;19922;-76
2022/03/10 08:27:36;;;;;;;;;;;;;;;;;;4923144;29;19993;-78
2022/03/10 08:30:04;;;;;;;;;;;;;;;;;;4932120;29;19926;-79
2022/03/10 08:32:30;;;;;;;;;;;;;;;;;;4932789;28;19982;-77
2022/03/10 08:34:56;;;;;;;;;;;;;;;;;;4953485;28;19926;-80
2022/03/10 08:37:24;;;;;;;;;;;;;;;;;;4936664;29;19926;-80
2022/03/10 08:39:49;;;;;;;;;;;;;;;;;;4937074;28;19974;-78
2022/03/10 08:42:16;;;;;;;;;;;;;;;;;;4921024;29;19935;-78
2022/03/10 08:44:41;;;;;;;;;;;;;;;;;;4946466;28;19931;-76
2022/03/10 08:47:07;;;;;;;;;;;;;;;;;;4928547;29;19928;-77
2022/03/10 08:49:35;;;;;;;;;;;;;;;;;;4928014;29;19930;-76
2022/03/10 08:52:01;;;;;;;;;;;;;;;;;;4936697;29;19958;-76
2022/03/10 08:54:27;;;;;;;;;;;;;;;;;;4927359;29;20023;-76
2022/03/10 08:56:53;;;;;;;;;;;;;;;;;;4936064;29;19918;-77
2022/03/10 08:59:19;;;;;;;;;;;;;;;;;;4934203;29;20267;-75
2022/03/10 09:01:44;;;;;;;;;;;;;;;;;;4931565;29;20409;-78
2022/03/10 09:04:10;;;;;;;;;;;;;;;;;;4935046;29;19922;-78
2022/03/10 09:06:36;;;;;;;;;;;;;;;;;;4933926;29;20009;-80
2022/03/10 09:09:05;;;;;;;;;;;;;;;;;;4928694;29;19923;-77
2022/03/10 09:11:30;;;;;;;;;;;;;;;;;;4930996;29;20013;-78
2022/03/10 09:13:59;;;;;;;;;;;;;;;;;;4931951;29;20367;-80
2022/03/10 09:16:25;;;;;;;;;;;;;;;;;;4929785;29;20251;-78
2022/03/10 09:18:52;;;;;;;;;;;;;;;;;;4927271;29;19993;-75
2022/03/10 09:21:19;;;;;;;;;;;;;;;;;;4949585;28;19935;-75
2022/03/10 09:23:45;;;;;;;;;;;;;;;;;;4938324;29;20437;-77
2022/03/10 09:26:11;;;;;;;;;;;;;;;;;;4929350;29;19946;-77
2022/03/10 09:28:37;;;;;;;;;;;;;;;;;;4923065;28;19931;-78
2022/03/10 09:31:03;;;;;;;;;;;;;;;;;;4929998;29;20789;-80
2022/03/10 09:33:29;;;;;;;;;;;;;;;;;;4928142;29;19990;-77
2022/03/10 09:35:57;;;;;;;;;;;;;;;;;;4928983;29;20197;-77
2022/03/10 09:38:25;;;;;;;;;;;;;;;;;;4930714;29;20057;-77
2022/03/10 09:40:54;;;;;;;;;;;;;;;;;;4930789;29;20308;-78
2022/03/10 09:43:23;;;;;;;;;;;;;;;;;;4922689;29;19927;-80
2022/03/10 09:45:50;;;;;;;;;;;;;;;;;;4928141;29;19927;-76
2022/03/10 09:48:18;;;;;;;;;;;;;;;;;;4925859;29;20032;-77
2022/03/10 09:50:45;;;;;;;;;;;;;;;;;;4931002;29;20298;-77
2022/03/10 09:53:11;;;;;;;;;;;;;;;;;;4932081;29;19929;-80
2022/03/10 09:55:37;;;;;;;;;;;;;;;;;;4934460;29;19927;-78
2022/03/10 09:58:03;;;;;;;;;;;;;;;;;;4929946;28;20007;-76
2022/03/10 10:00:32;;;;;;;;;;;;;;;;;;4929287;29;19942;-76
2022/03/10 10:02:59;;;;;;;;;;;;;;;;;;4933242;29;19923;-77
2022/03/10 10:05:28;;;;;;;;;;;;;;;;;;4944018;29;19922;-79
2022/03/10 10:08:08;;;;;;;;;;;;;;;;;;4940008;29;19950;-77
2022/03/10 10:10:36;;;;;;;;;;;;;;;;;;4963139;28;19926;-79
2022/03/10 10:13:06;;;;;;;;;;;;;;;;;;4944975;29;19965;-76
2022/03/10 10:15:39;;;;;;;;;;;;;;;;;;4939012;29;19986;-76
2022/03/10 10:18:06;;;;;;;;;;;;;;;;;;4932453;29;20789;-77
2022/03/10 10:20:32;;;;;;;;;;;;;;;;;;4938092;29;19931;-76
2022/03/10 10:23:14;;;;;;;;;;;;;;;;;;4948298;28;19927;-77
2022/03/10 10:25:47;;;;;;;;;;;;;;;;;;4926729;29;19936;-77
2022/03/10 10:28:23;;;;;;;;;;;;;;;;;;4925984;28;19931;-77
2022/03/10 10:30:52;;;;;;;;;;;;;;;;;;4930404;29;20013;-79
2022/03/10 10:33:22;;;;;;;;;;;;;;;;;;4924679;29;20033;-77
2022/03/10 10:35:47;;;;;;;;;;;;;;;;;;4928869;29;19927;-76
2022/03/10 10:38:27;;;;;;;;;;;;;;;;;;4929857;29;20410;-77
2022/03/10 10:41:13;;;;;;;;;;;;;;;;;;4925769;28;20301;-77
2022/03/10 10:43:43;;;;;;;;;;;;;;;;;;4929064;29;19926;-77
2022/03/10 10:46:20;;;;;;;;;;;;;;;;;;4934656;29;19926;-76
2022/03/10 10:48:47;;;;;;;;;;;;;;;;;;4947391;28;21251;-79
2022/03/10 10:51:13;;;;;;;;;;;;;;;;;;4925136;29;19934;-78
2022/03/10 10:53:40;;;;;;;;;;;;;;;;;;4928348;29;19926;-78
2022/03/10 10:56:06;;;;;;;;;;;;;;;;;;4929453;28;19923;-79
2022/03/10 10:58:32;;;;;;;;;;;;;;;;;;4921780;29;19930;-79
2022/03/10 11:00:57;;;;;;;;;;;;;;;;;;4923715;29;19931;-77
2022/03/10 11:03:24;;;;;;;;;;;;;;;;;;4929916;29;20019;-78
2022/03/10 11:05:52;;;;;;;;;;;;;;;;;;4928235;29;19982;-78
2022/03/10 11:08:20;;;;;;;;;;;;;;;;;;4928238;29;19927;-75
2022/03/10 11:10:46;;;;;;;;;;;;;;;;;;4928107;29;20002;-79
2022/03/10 11:13:11;;;;;;;;;;;;;;;;;;4935491;29;19934;-78
2022/03/10 11:15:38;;;;;;;;;;;;;;;;;;4933904;29;19918;-75
2022/03/10 11:18:08;;;;;;;;;;;;;;;;;;4942417;28;20393;-77
2022/03/10 11:20:35;;;;;;;;;;;;;;;;;;4926845;29;20416;-77
2022/03/10 11:23:01;;;;;;;;;;;;;;;;;;4932449;29;19929;-76
2022/03/10 11:25:39;;;;;;;;;;;;;;;;;;4936925;28;19922;-77
2022/03/10 11:28:23;;;;;;;;;;;;;;;;;;4930065;29;20191;-76
2022/03/10 11:30:51;;;;;;;;;;;;;;;;;;4935843;29;19931;-77
2022/03/10 11:33:17;;;;;;;;;;;;;;;;;;4935008;29;20029;-79
2022/03/10 11:35:48;;;;;;;;;;;;;;;;;;4911815;28;20025;-79
2022/03/10 11:38:15;;;;;;;;;;;;;;;;;;4929609;29;20620;-79
2022/03/10 11:40:46;;;;;;;;;;;;;;;;;;4931273;29;20281;-77
2022/03/10 11:43:32;;;;;;;;;;;;;;;;;;4925924;29;19982;-76
2022/03/10 11:46:17;;;;;;;;;;;;;;;;;;4933635;28;20559;-79
2022/03/10 11:48:43;;;;;;;;;;;;;;;;;;4925135;29;20154;-78
2022/03/10 11:51:12;;;;;;;;;;;;;;;;;;4941775;29;19993;-78
2022/03/10 11:54:15;;;;;;;;;;;;;;;;;;4931557;29;20052;-76
2022/03/10 11:56:43;;;;;;;;;;;;;;;;;;4894069;29;19927;-82
2022/03/10 11:59:27;;;;;;;;;;;;;;;;;;4928202;29;19927;-78
2022/03/10 12:01:55;;;;;;;;;;;;;;;;;;4931484;28;20386;-79
2022/03/10 12:04:22;;;;;;;;;;;;;;;;;;4931115;29;19977;-78
2022/03/10 12:06:58;;;;;;;;;;;;;;;;;;4929250;29;19925;-79
2022/03/10 12:09:30;;;;;;;;;;;;;;;;;;4930591;29;19927;-77
2022/03/10 12:12:31;;;;;;;;;;;;;;;;;;4912612;29;19927;-78
2022/03/10 12:15:15;;;;;;;;;;;;;;;;;;4879807;29;19927;-76
2022/03/10 12:17:53;;;;;;;;;;;;;;;;;;4922781;29;19952;-77
2022/03/10 12:20:23;;;;;;;;;;;;;;;;;;4932553;29;20064;-77
2022/03/10 12:23:09;;;;;;;;;;;;;;;;;;4926913;29;20285;-77
2022/03/10 12:25:41;;;;;;;;;;;;;;;;;;4943758;28;19954;-77
2022/03/10 12:28:09;;;;;;;;;;;;;;;;;;4928101;29;19922;-78
2022/03/10 12:30:40;;;;;;;;;;;;;;;;;;4928469;29;20413;-75
2022/03/10 12:33:08;;;;;;;;;;;;;;;;;;4924635;29;20414;-75
2022/03/10 12:35:36;;;;;;;;;;;;;;;;;;4925732;29;19926;-76
2022/03/10 12:38:02;;;;;;;;;;;;;;;;;;4925194;29;19945;-79
2022/03/10 12:40:30;;;;;;;;;;;;;;;;;;4932826;29;20052;-76
2022/03/10 12:43:00;;;;;;;;;;;;;;;;;;4931183;29;19927;-78
2022/03/10 12:45:32;;;;;;;;;;;;;;;;;;4936131;29;19957;-76
2022/03/10 12:48:15;;;;;;;;;;;;;;;;;;4930005;29;19927;-78
2022/03/10 12:50:43;;;;;;;;;;;;;;;;;;4948341;28;19929;-77
2022/03/10 12:53:12;;;;;;;;;;;;;;;;;;4926805;29;20202;-77
2022/03/10 12:55:38;;;;;;;;;;;;;;;;;;4930914;28;19986;-77
2022/03/10 12:58:04;;;;;;;;;;;;;;;;;;4928475;29;20500;-76
2022/03/10 13:00:29;;;;;;;;;;;;;;;;;;4946649;28;19930;-78
2022/03/10 13:02:58;;;;;;;;;;;;;;;;;;4932147;28;19981;-78
2022/03/10 13:05:26;;;;;;;;;;;;;;;;;;4931558;29;19926;-75
2022/03/10 13:07:54;;;;;;;;;;;;;;;;;;4932061;29;19922;-79
2022/03/10 13:10:22;;;;;;;;;;;;;;;;;;4924709;28;19927;-80
2022/03/10 13:12:48;;;;;;;;;;;;;;;;;;4930947;29;20413;-78
2022/03/10 13:15:18;;;;;;;;;;;;;;;;;;4932235;29;20009;-79
2022/03/10 13:17:44;;;;;;;;;;;;;;;;;;4926976;29;19923;-79
2022/03/10 13:20:14;;;;;;;;;;;;;;;;;;4929017;29;19927;-79
2022/03/10 13:22:59;;;;;;;;;;;;;;;;;;4931544;29;20391;-78
2022/03/10 13:25:26;;;;;;;;;;;;;;;;;;4930677;28;19926;-78
2022/03/10 13:27:57;;;;;;;;;;;;;;;;;;4933415;28;19926;-79
2022/03/10 13:30:25;;;;;;;;;;;;;;;;;;4933207;29;19939;-78
2022/03/10 13:32:53;;;;;;;;;;;;;;;;;;4951111;28;20382;-78
2022/03/10 13:35:28;;;;;;;;;;;;;;;;;;4932490;29;20268;-79
2022/03/10 13:37:58;;;;;;;;;;;;;;;;;;4947997;28;20018;-79
2022/03/10 13:40:24;;;;;;;;;;;;;;;;;;4929091;29;19931;-78
2022/03/10 13:42:51;;;;;;;;;;;;;;;;;;4933882;28;20440;-78
2022/03/10 13:45:17;;;;;;;;;;;;;;;;;;4938479;29;20095;-77
2022/03/10 13:48:03;;;;;;;;;;;;;;;;;;4934661;28;19933;-78
2022/03/10 13:50:32;;;;;;;;;;;;;;;;;;4928814;29;19934;-75
2022/03/10 13:52:59;;;;;;;;;;;;;;;;;;4935307;29;19922;-78
2022/03/10 13:55:36;;;;;;;;;;;;;;;;;;4925154;29;19998;-77
2022/03/10 13:58:03;;;;;;;;;;;;;;;;;;4935433;29;19922;-76
2022/03/10 14:00:31;;;;;;;;;;;;;;;;;;4928646;29;20424;-76
2022/03/10 14:02:57;;;;;;;;;;;;;;;;;;4928468;28;20064;-77
2022/03/10 14:05:26;;;;;;;;;;;;;;;;;;4928177;29;19927;-80
2022/03/10 14:07:55;;;;;;;;;;;;;;;;;;4930635;29;20228;-78
2022/03/10 14:10:28;;;;;;;;;;;;;;;;;;4929476;28;20048;-79
2022/03/10 14:12:55;;;;;;;;;;;;;;;;;;4932756;29;19933;-75
2022/03/10 14:15:34;;;;;;;;;;;;;;;;;;4935317;29;19923;-76
2022/03/10 14:18:00;;;;;;;;;;;;;;;;;;4933235;29;19937;-78
2022/03/10 14:20:48;;;;;;;;;;;;;;;;;;4933772;29;19926;-78
2022/03/10 14:23:16;;;;;;;;;;;;;;;;;;4930329;29;20025;-76
2022/03/10 14:25:52;;;;;;;;;;;;;;;;;;4935265;29;19923;-77
2022/03/10 14:28:37;;;;;;;;;;;;;;;;;;4926445;29;19923;-76
2022/03/10 14:31:14;;;;;;;;;;;;;;;;;;4929258;29;20055;-78
2022/03/10 14:33:45;;;;;;;;;;;;;;;;;;4940152;28;19923;-78
2022/03/10 14:36:12;;;;;;;;;;;;;;;;;;4925768;29;20021;-76
2022/03/10 14:38:41;;;;;;;;;;;;;;;;;;4920816;29;19919;-80
2022/03/10 14:41:07;;;;;;;;;;;;;;;;;;4926415;29;20026;-77
2022/03/10 14:43:39;;;;;;;;;;;;;;;;;;4926619;29;20446;-76
2022/03/10 14:46:10;;;;;;;;;;;;;;;;;;4921487;29;19932;-80
2022/03/10 14:48:35;;;;;;;;;;;;;;;;;;4923716;29;19969;-79
2022/03/10 14:51:04;;;;;;;;;;;;;;;;;;4921802;29;20041;-78
2022/03/10 14:53:31;;;;;;;;;;;;;;;;;;4921315;29;19961;-79
2022/03/10 14:55:57;;;;;;;;;;;;;;;;;;4925846;29;19930;-78
2022/03/10 14:58:23;;;;;;;;;;;;;;;;;;4927929;29;19919;-77
2022/03/10 15:00:48;;;;;;;;;;;;;;;;;;4920046;29;19930;-79
2022/03/10 15:03:14;;;;;;;;;;;;;;;;;;4918009;29;20453;-78
2022/03/10 15:05:40;;;;;;;;;;;;;;;;;;4922357;29;19919;-78
2022/03/10 15:08:06;;;;;;;;;;;;;;;;;;4918788;29;20256;-75
2022/03/10 15:10:33;;;;;;;;;;;;;;;;;;4904957;29;19934;-77
2022/03/10 15:12:58;;;;;;;;;;;;;;;;;;4949539;29;19923;-78
2022/03/10 15:15:26;;;;;;;;;;;;;;;;;;4933394;29;19934;-78
2022/03/10 15:17:52;;;;;;;;;;;;;;;;;;4944500;29;19990;-77
2022/03/10 15:20:18;;;;;;;;;;;;;;;;;;4934541;29;19983;-76
2022/03/10 15:22:56;;;;;;;;;;;;;;;;;;4926148;29;19926;-77
2022/03/10 15:25:26;;;;;;;;;;;;;;;;;;4918895;29;20382;-77
2022/03/10 15:27:52;;;;;;;;;;;;;;;;;;4918011;29;20001;-77
2022/03/10 15:30:18;;;;;;;;;;;;;;;;;;4911040;29;19935;-78
2022/03/10 15:32:45;;;;;;;;;;;;;;;;;;4923634;29;19933;-77
2022/03/10 15:35:11;;;;;;;;;;;;;;;;;;4913186;29;19966;-79
2022/03/10 15:37:38;;;;;;;;;;;;;;;;;;4922178;29;19919;-79
2022/03/10 15:40:04;;;;;;;;;;;;;;;;;;4921505;29;20405;-77
2022/03/10 15:42:30;;;;;;;;;;;;;;;;;;4917893;29;19930;-77
2022/03/10 15:44:59;;;;;;;;;;;;;;;;;;4919930;29;19926;-77
2022/03/10 15:47:25;;;;;;;;;;;;;;;;;;4921274;29;20005;-76
2022/03/10 15:49:51;;;;;;;;;;;;;;;;;;4928861;29;20375;-78
2022/03/10 15:52:16;;;;;;;;;;;;;;;;;;4932116;29;19923;-76
2022/03/10 15:54:42;;;;;;;;;;;;;;;;;;4926209;29;19926;-79
2022/03/10 15:57:08;;;;;;;;;;;;;;;;;;4920674;29;19919;-79
2022/03/10 15:59:35;;;;;;;;;;;;;;;;;;4922931;29;20561;-76
2022/03/10 16:02:05;;;;;;;;;;;;;;;;;;4919991;29;20271;-78
2022/03/10 16:04:30;;;;;;;;;;;;;;;;;;4923130;29;20006;-78
2022/03/10 16:06:56;;;;;;;;;;;;;;;;;;4923917;29;20356;-76
2022/03/10 16:09:22;;;;;;;;;;;;;;;;;;4919587;29;19922;-78
2022/03/10 16:11:48;;;;;;;;;;;;;;;;;;4924113;29;19923;-76
2022/03/10 16:14:14;;;;;;;;;;;;;;;;;;4929348;29;20258;-77
2022/03/10 16:16:40;;;;;;;;;;;;;;;;;;4930631;29;20014;-78
2022/03/10 16:19:05;;;;;;;;;;;;;;;;;;4937573;29;19973;-77
2022/03/10 16:21:32;;;;;;;;;;;;;;;;;;4937528;28;20348;-76
2022/03/10 16:23:57;;;;;;;;;;;;;;;;;;4919736;29;20427;-78
2022/03/10 16:26:23;;;;;;;;;;;;;;;;;;4921145;29;19930;-78
2022/03/10 16:28:49;;;;;;;;;;;;;;;;;;4911252;29;19931;-78
2022/03/10 16:31:15;;;;;;;;;;;;;;;;;;4917276;29;19975;-76
2022/03/10 16:33:41;;;;;;;;;;;;;;;;;;4920298;29;19970;-76
2022/03/10 16:36:08;;;;;;;;;;;;;;;;;;4926713;29;19931;-79
2022/03/10 16:38:36;;;;;;;;;;;;;;;;;;4933125;29;20015;-77
2022/03/10 16:56:32;;;;;;;;;;;;;;;;;;4921505;29;20045;-79
2022/03/10 16:58:59;;;;;;;;;;;;;;;;;;4924722;29;20907;-79
2022/03/10 17:01:27;;;;;;;;;;;;;;;;;;4927945;29;19938;-76
2022/03/10 17:03:53;;;;;;;;;;;;;;;;;;4924764;29;20302;-76
2022/03/10 17:06:18;;;;;;;;;;;;;;;;;;4931910;29;19919;-75
2022/03/10 17:08:50;;;;;;;;;;;;;;;;;;4920091;29;19938;-76